createdAt,value
2022-12-27T00:00:44.860Z,48.53
2022-12-27T00:03:12.747Z,48.57
2022-12-27T00:05:43.893Z,48.33
2022-12-27T00:08:11.794Z,48.50
2022-12-27T00:10:40.998Z,48.67
2022-12-27T00:13:08.847Z,48.47
2022-12-27T00:15:36.874Z,48.63
2022-12-27T00:18:04.759Z,48.47
2022-12-27T00:20:32.629Z,48.57
2022-12-27T00:23:01.352Z,48.90
2022-12-27T00:25:29.215Z,48.63
2022-12-27T00:27:58.426Z,48.60
2022-12-27T00:30:26.284Z,48.67
2022-12-27T00:32:54.087Z,48.67
2022-12-27T00:35:21.923Z,48.70
2022-12-27T00:37:49.735Z,48.70
2022-12-27T00:40:17.649Z,48.50
2022-12-27T00:42:45.485Z,48.43
2022-12-27T00:45:14.659Z,48.30
2022-12-27T00:47:42.455Z,48.40
2022-12-27T00:50:10.737Z,48.40
2022-12-27T00:52:38.537Z,48.27
2022-12-27T00:55:06.836Z,48.47
2022-12-27T00:57:34.640Z,48.43
2022-12-27T01:00:09.585Z,48.57
2022-12-27T01:02:39.668Z,48.50
2022-12-27T01:05:08.184Z,48.63
2022-12-27T01:07:35.967Z,48.37
2022-12-27T01:10:04.039Z,48.20
2022-12-27T01:12:31.910Z,48.27
2022-12-27T01:14:59.736Z,48.27
2022-12-27T01:17:27.553Z,48.37
2022-12-27T01:19:56.770Z,48.53
2022-12-27T01:22:24.660Z,48.80
2022-12-27T01:24:52.603Z,48.43
2022-12-27T01:27:20.441Z,48.57
2022-12-27T01:29:48.299Z,48.37
2022-12-27T01:32:16.115Z,48.60
2022-12-27T01:34:44.019Z,48.57
2022-12-27T01:37:13.173Z,48.57
2022-12-27T01:39:40.989Z,48.60
2022-12-27T01:42:34.248Z,48.47
2022-12-27T01:45:03.863Z,48.70
2022-12-27T01:47:40.675Z,48.40
2022-12-27T01:50:15.636Z,48.40
2022-12-27T01:52:48.168Z,48.50
2022-12-27T01:55:21.746Z,48.40
2022-12-27T01:57:52.426Z,48.63
2022-12-27T02:00:21.601Z,48.37
2022-12-27T02:02:52.065Z,47.83
2022-12-27T02:05:21.841Z,48.47
2022-12-27T02:08:09.618Z,48.40
2022-12-27T02:10:39.667Z,48.37
2022-12-27T02:13:07.518Z,48.17
2022-12-27T02:15:35.807Z,48.23
2022-12-27T02:18:03.734Z,48.33
2022-12-27T02:20:49.674Z,48.47
2022-12-27T02:24:05.224Z,48.23
2022-12-27T02:26:49.336Z,48.20
2022-12-27T02:29:50.197Z,48.23
2022-12-27T02:32:24.698Z,48.27
2022-12-27T02:35:01.045Z,48.70
2022-12-27T02:37:32.656Z,48.37
2022-12-27T02:40:22.506Z,48.57
2022-12-27T02:43:09.598Z,48.40
2022-12-27T02:46:03.062Z,48.47
2022-12-27T02:48:48.479Z,48.20
2022-12-27T02:51:50.253Z,48.17
2022-12-27T02:54:35.022Z,48.33
2022-12-27T02:57:12.371Z,47.97
2022-12-27T03:00:19.756Z,48.13
2022-12-27T03:03:23.949Z,48.30
2022-12-27T03:06:36.048Z,48.60
2022-12-27T03:09:34.989Z,48.50
2022-12-27T03:12:23.785Z,48.47
2022-12-27T03:15:18.497Z,48.47
2022-12-27T03:17:53.899Z,48.73
2022-12-27T03:20:40.827Z,48.33
2022-12-27T03:23:27.727Z,48.33
2022-12-27T03:25:58.927Z,48.60
2022-12-27T03:28:48.928Z,48.67
2022-12-27T03:31:38.286Z,48.37
2022-12-27T03:34:26.054Z,48.83
2022-12-27T03:37:13.475Z,48.60
2022-12-27T03:39:48.011Z,48.40
2022-12-27T03:42:39.216Z,48.30
2022-12-27T03:45:08.299Z,48.47
2022-12-27T03:47:42.479Z,48.70
2022-12-27T03:50:16.956Z,48.33
2022-12-27T03:52:49.678Z,48.60
2022-12-27T03:55:18.396Z,48.57
2022-12-27T03:57:46.436Z,48.30
2022-12-27T04:00:15.272Z,48.37
2022-12-27T04:02:44.551Z,48.60
2022-12-27T04:05:13.915Z,48.27
2022-12-27T04:07:59.108Z,48.60
2022-12-27T04:10:44.831Z,48.40
2022-12-27T04:13:30.280Z,48.50
2022-12-27T04:16:15.942Z,48.53
2022-12-27T04:19:01.457Z,48.40
2022-12-27T04:21:48.263Z,48.33
2022-12-27T04:24:33.864Z,48.30
2022-12-27T04:27:19.295Z,48.03
2022-12-27T04:30:04.763Z,48.13
2022-12-27T04:32:50.190Z,48.40
2022-12-27T04:35:18.011Z,48.37
2022-12-27T04:37:47.216Z,48.20
2022-12-27T04:40:32.767Z,48.17
2022-12-27T04:43:18.313Z,48.20
2022-12-27T04:46:03.740Z,48.20
2022-12-27T04:48:49.703Z,48.13
2022-12-27T04:51:35.174Z,48.20
2022-12-27T04:54:21.964Z,48.20
2022-12-27T04:56:49.777Z,48.30
2022-12-27T04:59:35.040Z,48.30
2022-12-27T05:02:06.063Z,48.33
2022-12-27T05:04:36.275Z,48.10
2022-12-27T05:07:19.593Z,48.37
2022-12-27T05:10:06.541Z,48.40
2022-12-27T05:12:52.057Z,48.33
2022-12-27T05:15:20.555Z,48.33
2022-12-27T05:17:48.404Z,48.43
2022-12-27T05:20:16.310Z,48.53
2022-12-27T05:23:01.536Z,48.37
2022-12-27T05:25:38.000Z,48.47
2022-12-27T05:28:08.005Z,48.40
2022-12-27T05:30:37.094Z,48.50
2022-12-27T05:33:05.597Z,48.50
2022-12-27T05:35:34.297Z,48.40
2022-12-27T05:38:02.754Z,48.67
2022-12-27T05:40:31.973Z,48.63
2022-12-27T05:43:00.328Z,48.67
2022-12-27T05:45:28.474Z,48.53
2022-12-27T05:47:56.521Z,48.70
2022-12-27T05:50:24.344Z,48.67
2022-12-27T05:52:52.192Z,49.10
2022-12-27T05:55:20.278Z,48.60
2022-12-27T05:57:49.482Z,48.67
2022-12-27T06:00:17.795Z,49.00
2022-12-27T06:02:45.818Z,48.50
2022-12-27T06:05:13.861Z,48.90
2022-12-27T06:07:41.708Z,48.60
2022-12-27T06:10:10.628Z,48.87
2022-12-27T06:12:38.929Z,49.00
2022-12-27T06:15:08.965Z,49.03
2022-12-27T06:17:36.812Z,49.10
2022-12-27T06:20:05.139Z,48.77
2022-12-27T06:22:32.972Z,48.77
2022-12-27T06:25:00.835Z,49.00
2022-12-27T06:27:28.699Z,49.23
2022-12-27T06:29:56.527Z,48.90
2022-12-27T06:32:25.685Z,49.03
2022-12-27T06:34:53.524Z,49.03
2022-12-27T06:37:21.348Z,48.87
2022-12-27T06:39:49.373Z,48.70
2022-12-27T06:42:17.242Z,49.17
2022-12-27T06:44:45.052Z,49.07
2022-12-27T06:47:12.854Z,48.93
2022-12-27T06:49:42.034Z,49.07
2022-12-27T06:52:09.851Z,49.10
2022-12-27T06:54:37.676Z,49.10
2022-12-27T06:57:05.479Z,49.10
2022-12-27T06:59:33.315Z,49.03
2022-12-27T07:02:01.316Z,49.03
2022-12-27T07:04:29.238Z,48.60
2022-12-27T07:06:58.885Z,48.47
2022-12-27T07:09:26.714Z,48.33
2022-12-27T07:11:54.557Z,48.00
2022-12-27T07:14:22.398Z,47.67
2022-12-27T07:16:50.793Z,47.83
2022-12-27T07:19:18.630Z,47.67
2022-12-27T07:21:46.896Z,47.60
2022-12-27T07:24:16.077Z,47.70
2022-12-27T07:26:43.891Z,47.70
2022-12-27T07:29:12.059Z,47.40
2022-12-27T07:31:40.920Z,47.53
2022-12-27T07:34:08.761Z,47.47
2022-12-27T07:36:39.156Z,47.17
2022-12-27T07:39:08.568Z,47.53
2022-12-27T07:41:37.981Z,47.43
2022-12-27T07:44:08.265Z,47.40
2022-12-27T07:46:36.334Z,47.20
2022-12-27T07:49:04.290Z,47.40
2022-12-27T07:51:32.159Z,47.30
2022-12-27T07:54:00.051Z,47.10
2022-12-27T07:56:29.239Z,47.40
2022-12-27T07:59:00.865Z,47.00
2022-12-27T08:01:51.003Z,47.00
2022-12-27T08:04:18.919Z,47.40
2022-12-27T08:06:47.383Z,47.10
2022-12-27T08:09:18.918Z,47.20
2022-12-27T08:11:46.743Z,47.10
2022-12-27T08:14:15.932Z,47.20
2022-12-27T08:16:43.788Z,47.30
2022-12-27T08:19:11.686Z,47.37
2022-12-27T08:21:40.476Z,47.40
2022-12-27T08:24:08.452Z,46.93
2022-12-27T08:26:36.401Z,47.00
2022-12-27T08:29:04.267Z,47.20
2022-12-27T08:31:33.469Z,46.80
2022-12-27T08:34:01.351Z,47.23
2022-12-27T08:36:54.079Z,47.10
2022-12-27T08:39:17.029Z,47.07
2022-12-27T08:41:45.234Z,47.10
2022-12-27T08:44:14.248Z,47.30
2022-12-27T08:46:43.447Z,46.93
2022-12-27T08:49:11.315Z,47.17
2022-12-27T08:51:41.408Z,47.53
2022-12-27T08:54:10.078Z,47.33
2022-12-27T08:56:38.165Z,47.50
2022-12-27T08:59:06.030Z,47.60
2022-12-27T09:01:34.010Z,47.57
2022-12-27T09:04:03.235Z,47.57
2022-12-27T09:06:31.158Z,47.30
2022-12-27T09:08:59.626Z,47.57
2022-12-27T09:11:29.311Z,47.67
2022-12-27T09:13:58.953Z,47.80
2022-12-27T09:16:27.895Z,47.83
2022-12-27T09:18:57.887Z,48.10
2022-12-27T09:21:29.691Z,47.87
2022-12-27T09:23:57.532Z,48.70
2022-12-27T09:26:28.738Z,48.23
2022-12-27T09:28:57.286Z,48.03
2022-12-27T09:31:26.391Z,48.30
2022-12-27T09:33:54.429Z,48.27
2022-12-27T09:36:24.803Z,48.43
2022-12-27T09:38:55.087Z,48.47
2022-12-27T09:44:30.081Z,48.50
2022-12-27T09:47:00.648Z,48.20
2022-12-27T09:49:37.745Z,48.40
2022-12-27T09:52:11.507Z,48.50
2022-12-27T09:54:59.488Z,48.63
2022-12-27T09:57:36.699Z,48.27
2022-12-27T10:00:07.881Z,48.27
2022-12-27T10:02:35.990Z,48.20
2022-12-27T10:05:21.563Z,48.20
2022-12-27T10:08:03.744Z,48.30
2022-12-27T10:10:42.528Z,48.10
2022-12-27T10:13:21.416Z,48.33
2022-12-27T10:15:55.961Z,48.17
2022-12-27T10:18:35.458Z,48.10
2022-12-27T10:21:09.351Z,48.37
2022-12-27T10:23:41.585Z,48.37
2022-12-27T10:26:15.784Z,48.27
2022-12-27T10:28:45.579Z,48.27
2022-12-27T10:31:17.722Z,48.30
2022-12-27T10:33:46.839Z,48.37
2022-12-27T10:36:18.723Z,48.40
2022-12-27T10:38:46.579Z,48.10
2022-12-27T10:41:28.023Z,47.93
2022-12-27T10:43:56.415Z,48.07
2022-12-27T10:46:30.681Z,47.83
2022-12-27T10:51:52.424Z,47.83
2022-12-27T10:54:24.495Z,47.93
2022-12-27T10:56:54.621Z,47.60
2022-12-27T10:59:24.907Z,47.87
2022-12-27T11:02:15.924Z,47.77
2022-12-27T11:04:58.681Z,47.63
2022-12-27T11:07:31.359Z,47.83
2022-12-27T11:10:08.273Z,47.90
2022-12-27T11:12:37.735Z,47.77
2022-12-27T11:15:18.536Z,47.67
2022-12-27T11:17:48.225Z,47.70
2022-12-27T11:20:23.018Z,48.00
2022-12-27T11:22:54.599Z,47.90
2022-12-27T11:25:23.158Z,47.80
2022-12-27T11:27:55.245Z,47.77
2022-12-27T11:30:26.509Z,47.87
2022-12-27T11:32:54.606Z,48.00
2022-12-27T11:35:24.613Z,47.83
2022-12-27T11:37:53.196Z,48.03
2022-12-27T11:40:27.690Z,47.60
2022-12-27T11:43:04.647Z,47.93
2022-12-27T11:45:39.860Z,47.80
2022-12-27T11:48:15.448Z,48.13
2022-12-27T11:50:59.813Z,48.03
2022-12-27T11:54:02.712Z,48.70
2022-12-27T11:56:33.140Z,49.10
2022-12-27T11:59:29.049Z,49.40
2022-12-27T12:02:17.769Z,49.10
2022-12-27T12:05:16.763Z,48.77
2022-12-27T12:08:15.557Z,48.50
2022-12-27T12:10:53.184Z,48.17
2022-12-27T12:13:40.623Z,47.93
2022-12-27T12:16:39.366Z,48.30
2022-12-27T12:19:21.535Z,47.97
2022-12-27T12:22:01.008Z,48.03
2022-12-27T12:24:42.852Z,48.10
2022-12-27T12:27:28.645Z,48.07
2022-12-27T12:30:16.121Z,48.20
2022-12-27T12:33:00.320Z,48.07
2022-12-27T12:35:49.618Z,48.07
2022-12-27T12:38:23.128Z,48.10
2022-12-27T12:41:13.696Z,48.30
2022-12-27T12:44:03.357Z,48.20
2022-12-27T12:46:38.089Z,47.90
2022-12-27T12:49:32.802Z,48.27
2022-12-27T12:52:16.358Z,48.20
2022-12-27T12:54:58.071Z,48.30
2022-12-27T12:57:40.380Z,48.07
2022-12-27T13:00:31.280Z,48.20
2022-12-27T13:03:30.423Z,48.20
2022-12-27T13:06:09.006Z,48.10
2022-12-27T13:08:41.910Z,48.20
2022-12-27T13:11:33.440Z,48.50
2022-12-27T13:14:16.709Z,48.37
2022-12-27T13:16:53.698Z,48.37
2022-12-27T13:19:43.994Z,48.33
2022-12-27T13:22:20.799Z,48.03
2022-12-27T13:25:11.206Z,48.40
2022-12-27T13:27:46.446Z,48.03
2022-12-27T13:30:20.953Z,48.13
2022-12-27T13:33:05.814Z,48.23
2022-12-27T13:35:50.449Z,48.07
2022-12-27T13:38:35.763Z,47.97
2022-12-27T13:41:26.468Z,48.13
2022-12-27T13:44:16.252Z,48.10
2022-12-27T13:47:26.809Z,48.43
2022-12-27T13:50:32.291Z,48.17
2022-12-27T13:53:21.553Z,48.03
2022-12-27T13:55:56.652Z,47.87
2022-12-27T13:58:59.820Z,48.23
2022-12-27T14:01:49.785Z,47.87
2022-12-27T14:04:46.631Z,48.17
2022-12-27T14:07:47.212Z,47.87
2022-12-27T14:10:23.345Z,48.10
2022-12-27T14:12:59.349Z,47.90
2022-12-27T14:15:40.774Z,48.10
2022-12-27T14:18:26.550Z,47.93
2022-12-27T14:21:06.384Z,47.93
2022-12-27T14:24:01.061Z,48.10
2022-12-27T14:27:12.317Z,48.33
2022-12-27T14:30:15.100Z,48.03
2022-12-27T14:33:18.934Z,48.03
2022-12-27T14:36:20.225Z,48.20
2022-12-27T14:39:06.119Z,47.97
2022-12-27T14:42:05.337Z,47.83
2022-12-27T14:45:16.120Z,48.00
2022-12-27T14:48:02.022Z,48.10
2022-12-27T14:50:59.568Z,47.77
2022-12-27T14:54:07.084Z,47.77
2022-12-27T14:56:43.621Z,47.73
2022-12-27T14:59:30.431Z,47.63
2022-12-27T15:02:15.491Z,48.00
2022-12-27T15:04:53.987Z,48.07
2022-12-27T15:07:59.764Z,48.00
2022-12-27T15:10:47.320Z,47.83
2022-12-27T15:13:19.766Z,47.80
2022-12-27T15:15:58.058Z,47.87
2022-12-27T15:18:48.233Z,47.80
2022-12-27T15:21:25.934Z,47.80
2022-12-27T15:23:55.791Z,47.80
2022-12-27T15:26:33.448Z,48.00
2022-12-27T15:29:17.621Z,47.67
2022-12-27T15:31:56.335Z,47.60
2022-12-27T15:34:44.915Z,47.77
2022-12-27T15:37:49.878Z,47.70
2022-12-27T15:40:29.693Z,47.77
2022-12-27T15:43:05.258Z,47.60
2022-12-27T15:45:48.896Z,47.80
2022-12-27T15:48:50.002Z,47.80
2022-12-27T15:51:30.096Z,47.97
2022-12-27T15:54:25.098Z,47.90
2022-12-27T15:57:40.492Z,47.90
2022-12-27T16:00:17.087Z,47.63
2022-12-27T16:02:56.542Z,47.67
2022-12-27T16:05:44.893Z,47.87
2022-12-27T16:08:30.556Z,47.80
2022-12-27T16:10:58.976Z,47.50
2022-12-27T16:13:43.193Z,47.53
2022-12-27T16:16:56.222Z,48.00
2022-12-27T16:19:52.381Z,48.23
2022-12-27T16:22:27.640Z,48.73
2022-12-27T16:24:57.388Z,48.27
2022-12-27T16:27:31.524Z,48.60
2022-12-27T16:30:00.577Z,48.73
2022-12-27T16:32:29.252Z,48.83
2022-12-27T16:35:12.942Z,48.90
2022-12-27T16:37:45.665Z,49.10
2022-12-27T16:40:38.996Z,49.00
2022-12-27T16:43:51.960Z,48.87
2022-12-27T16:46:44.751Z,48.87
2022-12-27T16:49:48.957Z,49.07
2022-12-27T16:52:41.577Z,49.10
2022-12-27T16:55:27.385Z,49.07
2022-12-27T16:58:21.003Z,49.33
2022-12-27T17:00:50.407Z,49.03
2022-12-27T17:03:46.237Z,49.33
2022-12-27T17:06:51.418Z,49.33
2022-12-27T17:09:42.794Z,49.67
2022-12-27T17:12:21.426Z,49.33
2022-12-27T17:14:58.512Z,49.47
2022-12-27T17:17:26.894Z,49.63
2022-12-27T17:19:59.505Z,49.80
2022-12-27T17:22:34.112Z,49.57
2022-12-27T17:25:03.929Z,49.57
2022-12-27T17:28:00.861Z,49.23
2022-12-27T17:30:39.364Z,49.40
2022-12-27T17:33:32.460Z,49.60
2022-12-27T17:36:16.583Z,49.37
2022-12-27T17:38:58.183Z,49.43
2022-12-27T17:41:53.999Z,49.70
2022-12-27T17:44:39.792Z,49.77
2022-12-27T17:47:37.972Z,49.37
2022-12-27T17:50:13.985Z,49.50
2022-12-27T17:52:59.345Z,49.77
2022-12-27T17:55:47.345Z,50.07
2022-12-27T17:58:17.211Z,49.90
2022-12-27T18:00:54.660Z,49.67
2022-12-27T18:03:27.047Z,50.13
2022-12-27T18:05:54.920Z,49.93
2022-12-27T18:08:28.082Z,49.47
2022-12-27T18:10:56.702Z,49.73
2022-12-27T18:13:27.482Z,49.53
2022-12-27T18:15:56.775Z,49.13
2022-12-27T18:18:28.986Z,49.33
2022-12-27T18:20:59.520Z,49.50
2022-12-27T18:23:28.186Z,49.30
2022-12-27T18:26:02.623Z,49.27
2022-12-27T18:28:33.715Z,49.10
2022-12-27T18:31:08.288Z,49.20
2022-12-27T18:33:42.963Z,49.20
2022-12-27T18:36:16.849Z,49.07
2022-12-27T18:38:47.890Z,48.90
2022-12-27T18:41:18.180Z,49.10
2022-12-27T18:43:59.575Z,49.03
2022-12-27T18:46:29.942Z,48.80
2022-12-27T18:48:59.344Z,49.30
2022-12-27T18:51:32.763Z,48.97
2022-12-27T18:54:01.476Z,49.07
2022-12-27T18:56:32.500Z,48.83
2022-12-27T18:59:03.500Z,48.77
2022-12-27T19:01:44.098Z,48.97
2022-12-27T19:04:27.678Z,48.87
2022-12-27T19:06:58.779Z,48.93
2022-12-27T19:09:29.578Z,48.93
2022-12-27T19:11:59.659Z,48.93
2022-12-27T19:14:35.342Z,49.07
2022-12-27T19:17:10.378Z,48.60
2022-12-27T19:19:40.407Z,49.10
2022-12-27T19:22:30.830Z,48.97
2022-12-27T19:25:00.282Z,48.83
2022-12-27T19:27:28.203Z,48.83
2022-12-27T19:29:56.020Z,49.27
2022-12-27T19:32:29.598Z,49.03
2022-12-27T19:35:01.007Z,49.07
2022-12-27T19:37:30.699Z,49.10
2022-12-27T19:39:59.603Z,48.63
2022-12-27T19:42:29.636Z,48.87
2022-12-27T19:44:57.507Z,49.20
2022-12-27T19:47:26.840Z,49.00
2022-12-27T19:49:54.700Z,49.07
2022-12-27T19:52:26.606Z,48.97
2022-12-27T19:55:01.146Z,48.97
2022-12-27T19:57:29.008Z,48.67
2022-12-27T19:59:56.868Z,48.90
2022-12-27T20:02:25.028Z,48.50
2022-12-27T20:04:53.375Z,48.80
2022-12-27T20:07:24.532Z,48.70
2022-12-27T20:09:52.488Z,49.00
2022-12-27T20:12:20.366Z,49.17
2022-12-27T20:14:48.574Z,48.63
2022-12-27T20:17:16.467Z,48.60
2022-12-27T20:19:44.283Z,48.63
2022-12-27T20:22:12.333Z,49.00
2022-12-27T20:24:41.524Z,48.73
2022-12-27T20:27:09.332Z,48.77
2022-12-27T20:29:37.343Z,48.90
2022-12-27T20:32:05.463Z,48.73
2022-12-27T20:34:33.320Z,48.67
2022-12-27T20:37:01.162Z,48.90
2022-12-27T20:39:29.026Z,48.90
2022-12-27T20:41:58.234Z,48.93
2022-12-27T20:44:27.766Z,49.00
2022-12-27T20:46:57.046Z,48.40
2022-12-27T20:49:25.024Z,48.70
2022-12-27T20:51:52.935Z,48.50
2022-12-27T20:54:20.791Z,48.57
2022-12-27T20:56:48.598Z,48.23
2022-12-27T20:59:17.781Z,48.67
2022-12-27T21:01:45.881Z,48.40
2022-12-27T21:04:13.943Z,48.70
2022-12-27T21:06:41.768Z,48.63
2022-12-27T21:09:09.788Z,48.40
2022-12-27T21:11:37.674Z,48.47
2022-12-27T21:14:05.936Z,48.37
2022-12-27T21:16:36.091Z,48.53
2022-12-27T21:19:07.020Z,48.43
2022-12-27T21:21:37.542Z,48.30
2022-12-27T21:24:07.626Z,48.40
2022-12-27T21:26:37.408Z,48.10
2022-12-27T21:29:06.897Z,48.07
2022-12-27T21:31:36.815Z,48.10
2022-12-27T21:34:05.400Z,48.47
2022-12-27T21:36:34.123Z,48.40
2022-12-27T21:39:02.752Z,48.47
2022-12-27T21:41:32.886Z,48.13
2022-12-27T21:44:01.405Z,48.43
2022-12-27T21:46:31.688Z,48.30
2022-12-27T21:49:02.533Z,47.97
2022-12-27T21:51:32.450Z,48.30
2022-12-27T21:54:00.828Z,48.00
2022-12-27T21:56:29.261Z,48.10
2022-12-27T21:58:57.518Z,48.20
2022-12-27T22:01:27.141Z,48.23
2022-12-27T22:03:56.588Z,48.27
2022-12-27T22:06:27.740Z,48.40
2022-12-27T22:08:58.537Z,48.17
2022-12-27T22:11:27.528Z,48.53
2022-12-27T22:13:55.563Z,48.37
2022-12-27T22:16:25.523Z,48.10
2022-12-27T22:18:55.793Z,48.47
2022-12-27T22:21:27.812Z,48.37
2022-12-27T22:23:57.386Z,48.33
2022-12-27T22:26:29.360Z,48.30
2022-12-27T22:28:57.774Z,48.13
2022-12-27T22:31:27.655Z,48.37
2022-12-27T22:33:55.450Z,48.13
2022-12-27T22:36:24.825Z,48.20
2022-12-27T22:38:56.633Z,48.30
2022-12-27T22:41:26.832Z,48.00
2022-12-27T22:43:56.178Z,48.27
2022-12-27T22:46:25.069Z,48.40
2022-12-27T22:48:54.415Z,47.73
2022-12-27T22:51:24.631Z,48.30
2022-12-27T22:53:54.864Z,48.37
2022-12-27T22:56:24.656Z,47.80
2022-12-27T22:58:52.641Z,48.20
2022-12-27T23:01:22.359Z,48.07
2022-12-27T23:03:50.547Z,48.07
2022-12-27T23:06:18.812Z,48.07
2022-12-27T23:08:47.192Z,48.03
2022-12-27T23:11:18.538Z,48.10
2022-12-27T23:13:47.367Z,48.20
2022-12-27T23:16:15.467Z,48.00
2022-12-27T23:18:43.446Z,48.40
2022-12-27T23:21:21.774Z,48.47
2022-12-27T23:23:52.287Z,48.37
2022-12-27T23:26:23.310Z,48.40
2022-12-27T23:28:53.178Z,48.40
2022-12-27T23:31:22.565Z,47.90
2022-12-27T23:33:50.486Z,48.23
2022-12-27T23:36:18.342Z,48.23
2022-12-27T23:38:46.418Z,48.23
2022-12-27T23:41:16.431Z,47.97
2022-12-27T23:43:54.924Z,48.00
2022-12-27T23:46:27.191Z,48.13
2022-12-27T23:48:55.490Z,48.20
2022-12-27T23:51:24.071Z,48.40
2022-12-27T23:53:52.213Z,48.23
2022-12-27T23:56:22.685Z,48.20
2022-12-27T23:58:53.790Z,48.37
